createdAt,value
2019-05-19T00:00:51.531Z,49.70
2019-05-19T00:03:22.515Z,49.70
2019-05-19T00:05:53.091Z,49.30
2019-05-19T00:08:23.752Z,49.30
2019-05-19T00:10:54.598Z,48.90
2019-05-19T00:13:25.833Z,48.90
2019-05-19T00:15:56.771Z,49.20
2019-05-19T00:18:27.388Z,48.90
2019-05-19T00:20:59.967Z,49.00
2019-05-19T00:23:30.902Z,48.60
2019-05-19T00:26:01.849Z,48.80
2019-05-19T00:28:32.783Z,48.90
2019-05-19T00:31:03.678Z,49.00
2019-05-19T00:33:34.594Z,49.20
2019-05-19T00:36:05.332Z,50.00
2019-05-19T00:38:36.524Z,49.30
2019-05-19T00:41:07.871Z,49.20
2019-05-19T00:43:38.953Z,48.90
2019-05-19T00:46:11.010Z,48.90
2019-05-19T00:48:41.699Z,49.00
2019-05-19T00:51:15.576Z,49.00
2019-05-19T00:53:47.053Z,48.90
2019-05-19T00:56:19.041Z,49.00
2019-05-19T00:58:51.032Z,48.90
2019-05-19T01:01:22.203Z,49.50
2019-05-19T01:03:53.503Z,49.10
2019-05-19T01:06:25.655Z,49.10
2019-05-19T01:08:59.309Z,49.40
2019-05-19T01:11:31.055Z,49.60
2019-05-19T01:14:02.503Z,50.20
2019-05-19T01:16:33.573Z,50.50
2019-05-19T01:19:04.295Z,50.40
2019-05-19T01:21:35.788Z,50.60
2019-05-19T01:24:06.794Z,50.80
2019-05-19T01:26:37.647Z,51.00
2019-05-19T01:29:08.386Z,51.10
2019-05-19T01:31:39.279Z,51.20
2019-05-19T01:34:09.882Z,51.30
2019-05-19T01:36:40.796Z,51.60
2019-05-19T01:39:12.354Z,51.50
2019-05-19T01:41:43.245Z,51.30
2019-05-19T01:44:14.569Z,51.00
2019-05-19T01:46:45.392Z,50.90
2019-05-19T01:49:18.473Z,51.20
2019-05-19T01:51:50.661Z,50.80
2019-05-19T01:54:22.182Z,50.90
2019-05-19T01:56:53.357Z,50.90
2019-05-19T01:59:24.613Z,50.70
2019-05-19T02:01:55.725Z,51.30
2019-05-19T02:04:26.596Z,51.30
2019-05-19T02:06:57.591Z,52.20
2019-05-19T02:09:28.478Z,51.50
2019-05-19T02:11:59.354Z,51.50
2019-05-19T02:14:30.833Z,51.60
2019-05-19T02:17:02.457Z,52.50
2019-05-19T02:19:33.103Z,51.50
2019-05-19T02:22:03.801Z,51.50
2019-05-19T02:24:35.335Z,51.40
2019-05-19T02:27:06.140Z,51.30
2019-05-19T02:29:39.714Z,51.50
2019-05-19T02:32:11.700Z,51.50
2019-05-19T02:34:43.012Z,51.50
2019-05-19T02:37:15.396Z,51.50
2019-05-19T02:39:46.514Z,51.90
2019-05-19T02:42:24.904Z,52.30
2019-05-19T02:44:57.685Z,52.40
2019-05-19T02:47:29.556Z,52.60
2019-05-19T02:50:03.780Z,52.90
2019-05-19T02:52:35.023Z,53.10
2019-05-19T02:55:06.547Z,53.10
2019-05-19T02:57:38.211Z,53.00
2019-05-19T03:00:10.675Z,52.80
2019-05-19T03:02:42.276Z,53.10
2019-05-19T03:05:14.132Z,53.10
2019-05-19T03:07:46.350Z,53.10
2019-05-19T03:10:18.329Z,53.20
2019-05-19T03:12:49.385Z,53.50
2019-05-19T03:15:22.276Z,53.50
2019-05-19T03:17:54.160Z,53.60
2019-05-19T03:20:25.211Z,53.50
2019-05-19T03:22:57.895Z,53.50
2019-05-19T03:25:28.875Z,53.40
2019-05-19T03:27:59.932Z,53.30
2019-05-19T03:30:58.317Z,53.00
2019-05-19T03:33:30.682Z,52.90
2019-05-19T03:36:02.591Z,52.80
2019-05-19T03:38:33.076Z,52.60
2019-05-19T03:41:04.060Z,52.60
2019-05-19T03:43:34.901Z,52.50
2019-05-19T03:46:05.635Z,52.50
2019-05-19T03:48:36.381Z,52.50
2019-05-19T03:51:07.228Z,52.80
2019-05-19T03:53:38.267Z,52.70
2019-05-19T03:56:09.706Z,52.60
2019-05-19T03:58:40.503Z,52.60
2019-05-19T04:01:11.292Z,52.80
2019-05-19T04:03:42.231Z,52.90
2019-05-19T04:06:12.849Z,52.60
2019-05-19T04:08:43.793Z,53.10
2019-05-19T04:11:17.250Z,53.50
2019-05-19T04:13:48.723Z,53.90
2019-05-19T04:16:20.821Z,54.40
2019-05-19T04:18:51.405Z,54.50
2019-05-19T04:21:22.194Z,54.70
2019-05-19T04:23:53.217Z,54.60
2019-05-19T04:26:24.165Z,54.80
2019-05-19T04:28:54.796Z,54.80
2019-05-19T04:31:25.490Z,54.40
2019-05-19T04:33:56.137Z,54.10
2019-05-19T04:36:27.512Z,54.00
2019-05-19T04:38:59.270Z,53.80
2019-05-19T04:41:32.892Z,53.70
2019-05-19T04:44:04.890Z,53.70
2019-05-19T04:46:37.234Z,53.90
2019-05-19T04:49:08.161Z,53.70
2019-05-19T04:51:40.428Z,53.80
2019-05-19T04:54:11.184Z,54.00
2019-05-19T04:56:43.505Z,53.80
2019-05-19T04:59:14.262Z,53.70
2019-05-19T05:01:45.581Z,54.40
2019-05-19T05:04:16.719Z,53.50
2019-05-19T05:06:47.626Z,53.70
2019-05-19T05:09:18.465Z,53.50
2019-05-19T05:11:51.841Z,53.30
2019-05-19T05:14:22.498Z,53.50
2019-05-19T05:16:53.465Z,53.70
2019-05-19T05:19:25.277Z,53.90
2019-05-19T05:21:59.831Z,54.00
2019-05-19T05:24:31.347Z,54.10
2019-05-19T05:27:03.432Z,54.20
2019-05-19T05:29:34.274Z,54.30
2019-05-19T05:32:06.748Z,54.00
2019-05-19T05:34:37.826Z,53.80
2019-05-19T05:37:10.128Z,53.90
2019-05-19T05:39:41.427Z,53.60
2019-05-19T05:42:12.815Z,54.10
2019-05-19T05:44:47.595Z,54.00
2019-05-19T05:47:18.227Z,53.70
2019-05-19T05:49:50.321Z,53.40
2019-05-19T05:52:21.103Z,52.90
2019-05-19T05:54:51.745Z,52.90
2019-05-19T05:57:23.200Z,52.60
2019-05-19T05:59:56.161Z,52.50
2019-05-19T06:02:26.934Z,52.60
2019-05-19T06:04:58.562Z,52.50
2019-05-19T06:07:29.416Z,52.40
2019-05-19T06:10:00.051Z,51.80
2019-05-19T06:12:31.114Z,51.90
2019-05-19T06:15:02.732Z,50.80
2019-05-19T06:17:33.852Z,50.80
2019-05-19T06:20:04.989Z,50.40
2019-05-19T06:22:35.904Z,50.40
2019-05-19T06:25:07.550Z,50.20
2019-05-19T06:27:38.608Z,49.60
2019-05-19T06:30:09.828Z,49.10
2019-05-19T06:32:47.851Z,48.70
2019-05-19T06:35:21.345Z,48.40
2019-05-19T06:37:53.183Z,48.00
2019-05-19T06:40:24.545Z,47.70
2019-05-19T06:42:57.209Z,47.50
2019-05-19T06:45:29.214Z,47.30
2019-05-19T06:48:03.437Z,47.50
2019-05-19T06:50:34.697Z,47.60
2019-05-19T06:53:13.895Z,47.40
2019-05-19T06:55:37.584Z,47.60
2019-05-19T06:58:08.582Z,47.70
2019-05-19T07:00:39.675Z,47.50
2019-05-19T07:03:13.214Z,47.70
2019-05-19T07:05:43.800Z,46.50
2019-05-19T07:08:17.807Z,46.70
2019-05-19T07:10:49.226Z,47.00
2019-05-19T07:13:20.663Z,46.90
2019-05-19T07:15:51.691Z,46.70
2019-05-19T07:18:23.120Z,46.80
2019-05-19T07:20:53.748Z,47.10
2019-05-19T07:23:28.634Z,46.80
2019-05-19T07:25:58.906Z,46.80
2019-05-19T07:28:29.585Z,47.10
2019-05-19T07:31:00.191Z,47.30
2019-05-19T07:33:33.268Z,47.30
2019-05-19T07:36:05.056Z,47.40
2019-05-19T07:38:37.724Z,47.10
2019-05-19T07:41:08.296Z,47.20
2019-05-19T07:43:39.086Z,47.20
2019-05-19T07:46:09.799Z,47.20
2019-05-19T07:48:40.854Z,47.20
2019-05-19T07:51:12.428Z,46.90
2019-05-19T07:53:43.494Z,46.60
2019-05-19T07:56:14.505Z,46.70
2019-05-19T07:58:46.626Z,46.50
2019-05-19T08:01:17.338Z,46.30
2019-05-19T08:03:48.576Z,46.80
2019-05-19T08:06:22.659Z,46.80
2019-05-19T08:08:53.369Z,46.80
2019-05-19T08:11:24.547Z,46.50
2019-05-19T08:13:55.459Z,45.70
2019-05-19T08:16:26.276Z,45.50
2019-05-19T08:18:57.061Z,44.80
2019-05-19T08:21:27.627Z,44.90
2019-05-19T08:24:00.779Z,45.00
2019-05-19T08:26:31.327Z,44.60
2019-05-19T08:29:02.569Z,45.10
2019-05-19T08:31:33.705Z,45.10
2019-05-19T08:34:05.010Z,45.10
2019-05-19T08:36:36.008Z,45.10
2019-05-19T08:39:08.239Z,44.80
2019-05-19T08:41:39.536Z,44.60
2019-05-19T08:44:10.415Z,44.60
2019-05-19T08:46:41.679Z,44.80
2019-05-19T08:49:12.637Z,44.80
2019-05-19T08:51:43.897Z,45.00
2019-05-19T08:54:18.448Z,44.00
2019-05-19T08:56:50.853Z,43.10
2019-05-19T08:59:22.165Z,42.60
2019-05-19T09:01:52.920Z,42.10
2019-05-19T09:04:24.506Z,42.30
2019-05-19T09:06:55.843Z,41.50
2019-05-19T09:09:28.163Z,42.00
2019-05-19T09:11:59.099Z,41.80
2019-05-19T09:14:30.554Z,41.30
2019-05-19T09:17:01.310Z,41.20
2019-05-19T09:19:32.646Z,41.10
2019-05-19T09:22:03.278Z,40.90
2019-05-19T09:24:37.286Z,40.20
2019-05-19T09:27:07.016Z,40.10
2019-05-19T09:29:37.947Z,39.70
2019-05-19T09:32:09.093Z,39.70
2019-05-19T09:34:39.682Z,39.50
2019-05-19T09:37:10.207Z,38.60
2019-05-19T09:39:42.883Z,39.30
2019-05-19T09:42:13.460Z,39.50
2019-05-19T09:44:52.785Z,39.80
2019-05-19T09:47:23.816Z,39.40
2019-05-19T09:49:54.721Z,39.70
2019-05-19T09:52:25.373Z,39.50
2019-05-19T09:54:56.523Z,39.40
2019-05-19T09:57:27.448Z,39.20
2019-05-19T10:00:00.084Z,37.60
2019-05-19T10:02:30.850Z,37.90
2019-05-19T10:05:01.426Z,37.90
2019-05-19T10:07:32.215Z,37.70
2019-05-19T10:10:16.430Z,38.30
2019-05-19T10:12:47.571Z,36.30
2019-05-19T10:15:18.892Z,36.90
2019-05-19T10:17:50.682Z,36.90
2019-05-19T10:20:21.559Z,36.40
2019-05-19T10:22:52.479Z,36.50
2019-05-19T10:25:26.235Z,36.30
2019-05-19T10:27:58.281Z,37.30
2019-05-19T10:30:29.335Z,36.80
2019-05-19T10:32:59.993Z,35.60
2019-05-19T10:35:31.071Z,33.40
2019-05-19T10:38:03.033Z,32.80
2019-05-19T10:40:33.963Z,32.60
2019-05-19T10:43:04.602Z,31.90
2019-05-19T10:45:35.655Z,31.60
2019-05-19T10:48:06.586Z,32.50
2019-05-19T10:50:38.641Z,32.50
2019-05-19T10:53:09.992Z,31.30
2019-05-19T10:55:44.798Z,29.90
2019-05-19T10:58:15.482Z,29.10
2019-05-19T11:00:47.696Z,27.80
2019-05-19T11:03:18.625Z,27.30
2019-05-19T11:05:50.508Z,26.60
2019-05-19T11:08:23.330Z,26.80
2019-05-19T11:10:54.570Z,27.90
2019-05-19T11:13:25.811Z,28.10
2019-05-19T11:15:59.083Z,28.60
2019-05-19T11:18:30.836Z,28.70
2019-05-19T11:21:02.021Z,28.80
2019-05-19T11:23:33.952Z,29.50
2019-05-19T11:26:04.807Z,29.20
2019-05-19T11:28:35.738Z,28.80
2019-05-19T11:31:07.085Z,27.90
2019-05-19T11:33:37.978Z,28.10
2019-05-19T11:36:09.482Z,28.00
2019-05-19T11:38:40.308Z,27.90
2019-05-19T11:41:10.877Z,27.80
2019-05-19T11:43:41.915Z,27.50
2019-05-19T11:46:13.114Z,27.90
2019-05-19T11:48:44.097Z,27.40
2019-05-19T11:51:15.060Z,26.20
2019-05-19T11:53:45.791Z,26.70
2019-05-19T11:56:16.703Z,27.10
2019-05-19T11:58:48.668Z,27.70
2019-05-19T12:01:19.568Z,27.70
2019-05-19T12:03:50.886Z,27.20
2019-05-19T12:06:36.007Z,26.80
2019-05-19T12:08:53.961Z,25.70
2019-05-19T12:11:24.931Z,24.80
2019-05-19T12:13:56.031Z,24.20
2019-05-19T12:16:26.803Z,24.50
2019-05-19T12:18:57.968Z,24.30
2019-05-19T12:21:28.942Z,24.20
2019-05-19T12:23:59.521Z,24.50
2019-05-19T12:26:30.069Z,24.40
2019-05-19T12:29:01.069Z,24.30
2019-05-19T12:31:32.195Z,23.60
2019-05-19T12:34:02.770Z,23.50
2019-05-19T12:36:33.322Z,23.30
2019-05-19T12:39:05.798Z,22.90
2019-05-19T12:41:36.804Z,22.90
2019-05-19T12:44:07.649Z,22.90
2019-05-19T12:46:39.324Z,22.00
2019-05-19T12:49:11.103Z,22.60
2019-05-19T12:51:44.865Z,21.30
2019-05-19T12:54:15.616Z,21.30
2019-05-19T12:56:46.481Z,21.40
2019-05-19T12:59:17.457Z,21.40
2019-05-19T13:01:50.476Z,21.00
2019-05-19T13:04:21.428Z,20.50
2019-05-19T13:06:53.911Z,21.00
2019-05-19T13:09:24.908Z,21.00
2019-05-19T13:11:57.762Z,21.60
2019-05-19T13:14:29.614Z,20.90
2019-05-19T13:17:00.614Z,21.30
2019-05-19T13:19:31.350Z,21.90
2019-05-19T13:22:02.331Z,22.20
2019-05-19T13:24:33.595Z,22.10
2019-05-19T13:27:06.150Z,21.90
2019-05-19T13:29:36.858Z,22.10
2019-05-19T13:32:08.952Z,22.90
2019-05-19T13:34:40.808Z,22.80
2019-05-19T13:37:12.231Z,22.20
2019-05-19T13:39:42.783Z,22.50
2019-05-19T13:42:13.291Z,22.60
2019-05-19T13:44:44.498Z,22.90
2019-05-19T13:47:15.207Z,22.70
2019-05-19T13:49:46.093Z,22.70
2019-05-19T13:52:17.679Z,22.40
2019-05-19T13:54:48.763Z,22.20
2019-05-19T13:57:19.765Z,23.30
2019-05-19T13:59:50.444Z,24.90
2019-05-19T14:02:22.168Z,26.20
2019-05-19T14:04:55.663Z,26.90
2019-05-19T14:07:26.221Z,27.40
2019-05-19T14:09:58.727Z,27.40
2019-05-19T14:12:30.096Z,26.20
2019-05-19T14:15:04.022Z,26.10
2019-05-19T14:17:33.827Z,25.80
2019-05-19T14:20:05.012Z,26.10
2019-05-19T14:22:36.078Z,26.30
2019-05-19T14:25:07.542Z,27.40
2019-05-19T14:27:38.864Z,27.40
2019-05-19T14:30:11.688Z,27.20
2019-05-19T14:32:42.844Z,28.40
2019-05-19T14:35:13.615Z,29.40
2019-05-19T14:37:44.520Z,30.50
2019-05-19T14:40:22.777Z,32.00
2019-05-19T14:42:57.423Z,33.40
2019-05-19T14:45:29.187Z,33.60
2019-05-19T14:48:00.003Z,34.30
2019-05-19T14:50:31.340Z,34.80
2019-05-19T14:53:02.226Z,36.40
2019-05-19T14:55:33.036Z,37.10
2019-05-19T14:58:03.533Z,37.50
2019-05-19T15:00:35.264Z,37.50
2019-05-19T15:03:06.063Z,37.60
2019-05-19T15:05:37.220Z,37.80
2019-05-19T15:08:08.659Z,37.60
2019-05-19T15:10:39.302Z,37.60
2019-05-19T15:13:10.415Z,37.30
2019-05-19T15:15:41.556Z,38.10
2019-05-19T15:18:12.953Z,38.20
2019-05-19T15:20:47.901Z,38.50
2019-05-19T15:23:20.130Z,38.50
2019-05-19T15:25:50.835Z,37.80
2019-05-19T15:28:21.737Z,37.50
2019-05-19T15:30:52.503Z,37.50
2019-05-19T15:33:24.345Z,37.60
2019-05-19T15:41:12.262Z,37.80
2019-05-19T15:43:42.861Z,38.60
2019-05-19T17:15:06.690Z,43.10
2019-05-19T17:17:37.327Z,43.40
2019-05-19T17:20:08.857Z,42.60
2019-05-19T17:22:39.722Z,41.90
2019-05-19T17:25:12.781Z,42.10
2019-05-19T17:27:43.464Z,42.30
2019-05-19T17:30:17.002Z,42.30
2019-05-19T17:32:47.911Z,42.10
2019-05-19T17:35:18.647Z,42.50
2019-05-19T17:37:49.970Z,42.00
2019-05-19T17:40:21.903Z,42.50
2019-05-19T17:42:53.108Z,42.40
2019-05-19T17:45:23.870Z,42.30
2019-05-19T17:48:08.821Z,42.20
2019-05-19T17:50:35.945Z,42.40
2019-05-19T17:53:07.338Z,42.50
2019-05-19T17:55:38.436Z,42.80
2019-05-19T17:58:08.995Z,42.70
2019-05-19T18:00:40.962Z,42.90
2019-05-19T18:03:15.016Z,42.90
2019-05-19T18:05:46.071Z,43.30
2019-05-19T18:08:17.273Z,43.40
2019-05-19T18:10:48.383Z,43.50
2019-05-19T18:13:19.180Z,43.70
2019-05-19T18:15:51.030Z,44.10
2019-05-19T18:18:23.323Z,44.00
2019-05-19T18:20:56.058Z,44.00
2019-05-19T18:23:26.946Z,44.30
2019-05-19T18:26:00.729Z,44.30
2019-05-19T18:28:31.588Z,44.40
2019-05-19T18:31:03.144Z,44.50
2019-05-19T18:33:35.307Z,44.40
2019-05-19T18:36:06.127Z,44.00
2019-05-19T18:38:37.702Z,44.30
2019-05-19T18:41:09.352Z,44.00
2019-05-19T18:43:40.388Z,44.10
2019-05-19T18:46:11.190Z,43.70
2019-05-19T18:48:41.861Z,43.60
2019-05-19T18:51:12.413Z,43.20
2019-05-19T18:53:43.471Z,43.30
2019-05-19T18:56:14.138Z,43.30
2019-05-19T18:58:44.956Z,43.10
2019-05-19T19:01:18.640Z,43.10
2019-05-19T19:03:49.683Z,43.00
2019-05-19T19:06:20.676Z,43.00
2019-05-19T19:08:52.451Z,42.80
2019-05-19T19:11:23.500Z,42.70
2019-05-19T19:13:54.300Z,42.50
2019-05-19T19:16:25.609Z,42.80
2019-05-19T19:18:56.226Z,42.80
2019-05-19T19:21:26.818Z,43.50
2019-05-19T19:23:57.506Z,42.70
2019-05-19T19:26:28.454Z,42.90
2019-05-19T19:29:00.119Z,43.00
2019-05-19T19:31:31.397Z,43.40
2019-05-19T19:34:02.080Z,43.40
2019-05-19T19:36:33.005Z,43.80
2019-05-19T19:39:05.324Z,43.90
2019-05-19T19:41:36.367Z,44.20
2019-05-19T19:44:07.188Z,44.50
2019-05-19T19:46:38.399Z,44.50
2019-05-19T19:49:10.067Z,44.60
2019-05-19T19:51:41.732Z,44.70
2019-05-19T19:54:12.981Z,45.30
2019-05-19T19:56:45.090Z,45.60
2019-05-19T19:59:15.844Z,45.60
2019-05-19T20:01:46.791Z,45.60
2019-05-19T20:04:17.824Z,45.50
2019-05-19T20:06:48.363Z,45.60
2019-05-19T20:09:21.258Z,45.90
2019-05-19T20:11:51.827Z,46.30
2019-05-19T20:14:22.759Z,47.10
2019-05-19T20:16:53.903Z,46.70
2019-05-19T20:19:24.568Z,46.90
2019-05-19T20:21:55.165Z,47.10
2019-05-19T20:24:26.096Z,47.50
2019-05-19T20:26:56.656Z,47.70
2019-05-19T20:29:27.318Z,47.80
2019-05-19T20:31:57.873Z,48.00
2019-05-19T20:34:30.235Z,48.00
2019-05-19T20:37:00.814Z,48.00
2019-05-19T20:39:31.481Z,48.00
2019-05-19T20:42:02.040Z,48.20
2019-05-19T20:44:33.654Z,48.10
2019-05-19T20:47:05.487Z,48.30
2019-05-19T20:49:36.332Z,48.40
2019-05-19T20:52:06.832Z,48.30
2019-05-19T20:54:37.639Z,48.70
2019-05-19T20:57:08.218Z,48.80
2019-05-19T20:59:39.155Z,48.90
2019-05-19T21:02:09.835Z,48.60
2019-05-19T21:04:40.405Z,49.00
2019-05-19T21:07:11.496Z,49.40
2019-05-19T21:09:42.470Z,49.30
2019-05-19T21:12:13.001Z,49.50
2019-05-19T21:14:43.517Z,49.60
2019-05-19T21:17:15.744Z,49.70
2019-05-19T21:19:46.652Z,49.60
2019-05-19T21:22:18.359Z,49.60
2019-05-19T21:24:49.497Z,50.00
2019-05-19T21:27:21.254Z,50.10
2019-05-19T21:29:51.856Z,50.30
2019-05-19T21:32:22.767Z,50.30
2019-05-19T21:34:53.659Z,50.50
2019-05-19T21:37:24.101Z,50.60
2019-05-19T21:39:55.036Z,50.90
2019-05-19T21:42:26.092Z,50.90
2019-05-19T21:44:57.133Z,51.40
2019-05-19T21:47:27.918Z,51.70
2019-05-19T21:49:59.287Z,51.60
2019-05-19T21:52:29.785Z,52.00
2019-05-19T21:55:01.400Z,51.90
2019-05-19T21:57:32.304Z,52.10
2019-05-19T22:00:03.399Z,52.10
2019-05-19T22:02:35.241Z,52.10
2019-05-19T22:05:06.051Z,51.80
2019-05-19T22:07:58.238Z,52.00
2019-05-19T22:10:30.095Z,51.90
2019-05-19T22:13:01.445Z,52.20
2019-05-19T22:15:31.860Z,52.30
2019-05-19T22:18:02.505Z,52.70
2019-05-19T22:20:34.134Z,53.00
2019-05-19T22:23:04.645Z,53.20
2019-05-19T22:25:35.543Z,53.40
2019-05-19T22:28:06.577Z,53.40
2019-05-19T22:30:38.423Z,53.40
2019-05-19T22:33:10.880Z,53.20
2019-05-19T22:35:41.859Z,53.20
2019-05-19T22:38:13.151Z,53.50
2019-05-19T22:40:43.759Z,53.40
2019-05-19T22:43:14.568Z,53.50
2019-05-19T22:45:45.503Z,53.60
2019-05-19T22:48:16.264Z,53.70
2019-05-19T22:50:47.169Z,53.80
2019-05-19T22:53:17.708Z,53.90
2019-05-19T22:55:48.664Z,54.30
2019-05-19T22:58:19.294Z,54.40
2019-05-19T23:00:50.898Z,54.80
2019-05-19T23:03:21.524Z,54.90
2019-05-19T23:05:52.101Z,54.90
2019-05-19T23:08:22.748Z,55.10
2019-05-19T23:10:53.497Z,55.30
2019-05-19T23:13:24.616Z,55.40
2019-05-19T23:15:55.211Z,55.70
2019-05-19T23:18:26.360Z,55.50
2019-05-19T23:20:56.912Z,55.50
2019-05-19T23:23:27.563Z,55.30
2019-05-19T23:25:58.335Z,55.40
2019-05-19T23:28:29.023Z,55.40
2019-05-19T23:30:59.657Z,55.30
2019-05-19T23:33:31.204Z,55.30
2019-05-19T23:36:01.826Z,55.40
2019-05-19T23:38:32.457Z,55.50
2019-05-19T23:41:03.287Z,55.80
2019-05-19T23:43:33.863Z,55.60
2019-05-19T23:46:04.547Z,55.80
2019-05-19T23:48:35.112Z,55.90
2019-05-19T23:51:06.430Z,56.30
2019-05-19T23:53:38.778Z,56.30
2019-05-19T23:56:09.463Z,56.50
2019-05-19T23:58:40.111Z,56.50
